Time;durP1;ratioP1;P1;durP2;ratioP2;P2;SDS_P1;SDS_P2;PMS_P1;PMS_P2;Temp;Humidity;BMP_temperature;BMP_pressure;BME280_temperature;BME280_humidity;BME280_pressure;Samples;Min_cycle;Max_cycle;Signal;HPM_P1;HPM_P2
2023/11/23 00:00:15;;;;;;;2.65;2.10;;;;;;;;;;5023473;28;20029;-69
2023/11/23 00:02:41;;;;;;;1.85;1.60;;;;;;;;;;5011704;28;20025;-69
2023/11/23 00:05:08;;;;;;;3.15;1.80;;;;;;;;;;5024041;28;20044;-69
2023/11/23 00:07:35;;;;;;;2.28;1.73;;;;;;;;;;5021149;28;20029;-70
2023/11/23 00:10:01;;;;;;;1.70;1.58;;;;;;;;;;5021772;28;20037;-70
2023/11/23 00:12:27;;;;;;;2.15;1.95;;;;;;;;;;5015867;28;20029;-69
2023/11/23 00:14:53;;;;;;;1.95;1.70;;;;;;;;;;5025228;28;20431;-70
2023/11/23 00:17:19;;;;;;;2.15;1.75;;;;;;;;;;5022884;28;20513;-68
2023/11/23 00:19:48;;;;;;;4.28;2.00;;;;;;;;;;5020862;28;20072;-70
2023/11/23 00:22:15;;;;;;;2.20;1.73;;;;;;;;;;5022534;28;20032;-70
2023/11/23 00:24:41;;;;;;;2.33;1.65;;;;;;;;;;5016141;28;20442;-67
2023/11/23 00:27:07;;;;;;;3.30;1.80;;;;;;;;;;5024114;28;20422;-69
2023/11/23 00:29:33;;;;;;;1.95;1.85;;;;;;;;;;5020126;28;20275;-67
2023/11/23 00:31:59;;;;;;;1.65;1.55;;;;;;;;;;5016165;28;20128;-68
2023/11/23 00:34:26;;;;;;;4.60;2.03;;;;;;;;;;5020998;28;20029;-68
2023/11/23 00:36:52;;;;;;;2.42;1.50;;;;;;;;;;5018813;28;20047;-68
2023/11/23 00:39:18;;;;;;;1.92;1.73;;;;;;;;;;5024231;28;20104;-68
2023/11/23 00:41:44;;;;;;;4.30;1.70;;;;;;;;;;5023960;28;20025;-68
2023/11/23 00:44:10;;;;;;;1.55;1.45;;;;;;;;;;5021673;28;20095;-68
2023/11/23 00:46:37;;;;;;;2.45;1.63;;;;;;;;;;5025754;28;20021;-68
2023/11/23 00:49:04;;;;;;;1.88;1.55;;;;;;;;;;5019611;28;20406;-68
2023/11/23 00:51:32;;;;;;;1.60;1.50;;;;;;;;;;5020932;28;20495;-69
2023/11/23 00:53:58;;;;;;;1.65;1.60;;;;;;;;;;5011774;28;20571;-69
2023/11/23 00:56:24;;;;;;;1.48;1.38;;;;;;;;;;5015000;28;20368;-70
2023/11/23 00:58:51;;;;;;;1.65;1.55;;;;;;;;;;5019730;28;20082;-69
2023/11/23 01:01:18;;;;;;;1.35;1.30;;;;;;;;;;5021826;28;20059;-67
2023/11/23 01:03:44;;;;;;;1.65;1.55;;;;;;;;;;5021440;28;20048;-68
2023/11/23 01:06:11;;;;;;;1.50;1.40;;;;;;;;;;5023588;28;20026;-69
2023/11/23 01:08:37;;;;;;;1.10;1.10;;;;;;;;;;5015587;28;20037;-68
2023/11/23 01:11:03;;;;;;;2.25;1.60;;;;;;;;;;5016783;28;20053;-68
2023/11/23 01:13:30;;;;;;;1.48;1.38;;;;;;;;;;5019041;28;20045;-69
2023/11/23 01:15:56;;;;;;;1.55;1.42;;;;;;;;;;5021465;28;20033;-70
2023/11/23 01:18:23;;;;;;;1.27;1.25;;;;;;;;;;5020715;28;20246;-70
2023/11/23 01:20:50;;;;;;;1.50;1.40;;;;;;;;;;5024498;28;20029;-72
2023/11/23 01:23:16;;;;;;;1.35;1.30;;;;;;;;;;5014638;28;20041;-69
2023/11/23 01:25:43;;;;;;;3.03;1.50;;;;;;;;;;5018613;28;20693;-68
2023/11/23 01:28:09;;;;;;;1.30;1.30;;;;;;;;;;5017522;28;20112;-70
2023/11/23 01:30:35;;;;;;;1.50;1.40;;;;;;;;;;5019653;28;20034;-71
2023/11/23 01:33:01;;;;;;;1.92;1.52;;;;;;;;;;5015506;28;20036;-71
2023/11/23 01:35:28;;;;;;;1.20;1.20;;;;;;;;;;5014227;28;20498;-69
2023/11/23 01:37:55;;;;;;;1.48;1.38;;;;;;;;;;5016144;28;20597;-70
2023/11/23 01:40:21;;;;;;;2.47;1.25;;;;;;;;;;5019598;28;20035;-69
2023/11/23 01:42:47;;;;;;;2.00;1.42;;;;;;;;;;5024412;28;20044;-70
2023/11/23 01:45:13;;;;;;;1.95;1.35;;;;;;;;;;5013964;28;20085;-69
2023/11/23 01:47:41;;;;;;;1.50;1.40;;;;;;;;;;5024859;28;20035;-69
2023/11/23 01:50:08;;;;;;;1.73;1.60;;;;;;;;;;5015401;28;20037;-70
2023/11/23 01:52:35;;;;;;;2.83;1.48;;;;;;;;;;5019781;28;20380;-68
2023/11/23 01:55:04;;;;;;;1.50;1.40;;;;;;;;;;5023581;28;20025;-68
2023/11/23 01:57:36;;;;;;;3.35;1.40;;;;;;;;;;5022547;28;20037;-70
2023/11/23 02:00:03;;;;;;;1.10;1.10;;;;;;;;;;5017048;28;20243;-67
2023/11/23 02:02:30;;;;;;;1.27;1.27;;;;;;;;;;5027045;28;20028;-69
2023/11/23 02:04:59;;;;;;;1.30;1.30;;;;;;;;;;5019017;28;20506;-68
2023/11/23 02:07:26;;;;;;;0.98;0.98;;;;;;;;;;5002052;28;20188;-70
2023/11/23 02:09:52;;;;;;;1.95;1.33;;;;;;;;;;5011647;28;20232;-69
2023/11/23 02:12:21;;;;;;;1.20;1.20;;;;;;;;;;5024012;28;20314;-67
2023/11/23 02:14:49;;;;;;;1.25;1.20;;;;;;;;;;5023882;28;20108;-68
2023/11/23 02:17:18;;;;;;;1.00;1.00;;;;;;;;;;5021426;28;20029;-68
2023/11/23 02:19:45;;;;;;;2.60;1.20;;;;;;;;;;5011480;28;20029;-68
2023/11/23 02:22:12;;;;;;;1.20;1.20;;;;;;;;;;5020431;28;20040;-68
2023/11/23 02:24:43;;;;;;;1.30;1.20;;;;;;;;;;5021667;28;20045;-68
2023/11/23 02:27:09;;;;;;;1.90;1.05;;;;;;;;;;5015129;28;20030;-68
2023/11/23 02:29:35;;;;;;;1.10;1.10;;;;;;;;;;5020772;28;20432;-68
2023/11/23 02:32:08;;;;;;;0.90;0.90;;;;;;;;;;5022249;28;20017;-68
2023/11/23 02:34:35;;;;;;;1.10;1.10;;;;;;;;;;5017793;28;20054;-67
2023/11/23 02:37:01;;;;;;;1.15;1.15;;;;;;;;;;5020077;28;20042;-67
2023/11/23 02:39:27;;;;;;;1.00;1.00;;;;;;;;;;5026200;28;20079;-67
2023/11/23 02:41:54;;;;;;;2.40;1.20;;;;;;;;;;5019974;28;20029;-68
2023/11/23 02:44:20;;;;;;;1.60;1.50;;;;;;;;;;5023687;28;20048;-68
2023/11/23 02:46:48;;;;;;;1.27;1.20;;;;;;;;;;5032134;28;20024;-69
2023/11/23 02:49:15;;;;;;;1.00;1.00;;;;;;;;;;5016609;28;20033;-68
2023/11/23 02:51:41;;;;;;;1.10;1.10;;;;;;;;;;5020718;28;20096;-68
2023/11/23 02:54:07;;;;;;;1.10;1.10;;;;;;;;;;5019443;28;20029;-68
2023/11/23 02:56:36;;;;;;;1.20;1.20;;;;;;;;;;5020860;28;20036;-69
2023/11/23 02:59:02;;;;;;;1.77;1.67;;;;;;;;;;5017211;28;20029;-68
2023/11/23 03:01:28;;;;;;;1.10;1.10;;;;;;;;;;5021881;28;20041;-68
2023/11/23 03:03:55;;;;;;;1.30;1.20;;;;;;;;;;5018898;28;20494;-68
2023/11/23 03:06:21;;;;;;;2.30;1.23;;;;;;;;;;5020498;28;20049;-69
2023/11/23 03:08:47;;;;;;;2.63;0.98;;;;;;;;;;5019421;28;20380;-68
2023/11/23 03:11:25;;;;;;;1.35;1.08;;;;;;;;;;5015693;28;20041;-69
2023/11/23 03:13:53;;;;;;;1.15;1.15;;;;;;;;;;5015271;28;20013;-70
2023/11/23 03:16:20;;;;;;;1.40;1.30;;;;;;;;;;5026892;28;20391;-73
2023/11/23 03:18:46;;;;;;;1.15;1.15;;;;;;;;;;5023865;28;20025;-69
2023/11/23 03:21:12;;;;;;;1.30;1.30;;;;;;;;;;5020037;28;20025;-69
2023/11/23 03:23:39;;;;;;;1.10;1.10;;;;;;;;;;5022228;28;20017;-68
2023/11/23 03:26:05;;;;;;;1.08;1.08;;;;;;;;;;5019958;28;20303;-69
2023/11/23 03:28:32;;;;;;;1.30;1.20;;;;;;;;;;5024096;28;20483;-69
2023/11/23 03:30:58;;;;;;;1.33;1.23;;;;;;;;;;5027617;28;20041;-69
2023/11/23 03:33:24;;;;;;;1.13;1.10;;;;;;;;;;5029079;28;20793;-69
2023/11/23 03:35:50;;;;;;;1.33;1.25;;;;;;;;;;5021514;28;20056;-69
2023/11/23 03:38:17;;;;;;;1.40;1.30;;;;;;;;;;5021038;28;20091;-72
2023/11/23 03:40:43;;;;;;;1.88;1.40;;;;;;;;;;5027153;28;20120;-70
2023/11/23 03:43:10;;;;;;;1.40;1.30;;;;;;;;;;5025864;28;20029;-69
2023/11/23 03:45:37;;;;;;;1.65;1.17;;;;;;;;;;5021852;28;20040;-71
2023/11/23 03:48:03;;;;;;;1.35;1.25;;;;;;;;;;5028464;28;20034;-70
2023/11/23 03:50:30;;;;;;;1.60;1.50;;;;;;;;;;5030985;28;20026;-69
2023/11/23 03:52:56;;;;;;;1.08;1.08;;;;;;;;;;5033403;28;20017;-68
2023/11/23 03:55:23;;;;;;;1.20;1.20;;;;;;;;;;5029070;28;20036;-68
2023/11/23 03:57:49;;;;;;;2.10;1.30;;;;;;;;;;5030602;28;20029;-68
2023/11/23 04:00:16;;;;;;;1.10;1.10;;;;;;;;;;5024528;28;20021;-69
2023/11/23 04:02:46;;;;;;;1.52;1.42;;;;;;;;;;5026600;28;20025;-69
2023/11/23 04:05:16;;;;;;;1.85;1.75;;;;;;;;;;5031299;28;20024;-69
2023/11/23 04:07:42;;;;;;;1.20;1.20;;;;;;;;;;5021292;28;20553;-68
2023/11/23 04:10:09;;;;;;;1.20;1.20;;;;;;;;;;5027738;28;20143;-68
2023/11/23 04:12:35;;;;;;;2.13;1.45;;;;;;;;;;5025017;28;20089;-69
2023/11/23 04:15:02;;;;;;;1.60;1.50;;;;;;;;;;5026104;28;20495;-68
2023/11/23 04:17:28;;;;;;;1.40;1.30;;;;;;;;;;5033988;28;20024;-69
2023/11/23 04:19:54;;;;;;;1.50;1.40;;;;;;;;;;5030002;28;20025;-68
2023/11/23 04:22:23;;;;;;;1.40;1.30;;;;;;;;;;5027954;28;20021;-69
2023/11/23 04:24:50;;;;;;;1.95;1.48;;;;;;;;;;5026317;28;20048;-69
2023/11/23 04:27:16;;;;;;;3.38;1.48;;;;;;;;;;5031842;28;20025;-68
2023/11/23 04:29:42;;;;;;;1.85;1.45;;;;;;;;;;5030554;28;20022;-68
2023/11/23 04:32:11;;;;;;;1.50;1.40;;;;;;;;;;5025542;28;20029;-69
2023/11/23 04:34:37;;;;;;;1.63;1.27;;;;;;;;;;5035247;28;20029;-69
2023/11/23 04:37:03;;;;;;;1.33;1.25;;;;;;;;;;5026450;28;20109;-69
2023/11/23 04:39:29;;;;;;;1.45;1.45;;;;;;;;;;5022532;28;20025;-69
2023/11/23 04:41:56;;;;;;;1.77;1.20;;;;;;;;;;5029222;28;20044;-69
2023/11/23 04:44:22;;;;;;;1.50;1.42;;;;;;;;;;5020947;28;20143;-68
2023/11/23 04:46:49;;;;;;;1.40;1.05;;;;;;;;;;5020468;28;20029;-69
2023/11/23 04:49:16;;;;;;;1.13;1.13;;;;;;;;;;5025038;28;20372;-69
2023/11/23 04:51:42;;;;;;;1.35;1.27;;;;;;;;;;5018726;28;20047;-69
2023/11/23 04:54:09;;;;;;;1.30;1.20;;;;;;;;;;5019949;28;20100;-71
2023/11/23 04:56:35;;;;;;;1.50;1.40;;;;;;;;;;5024537;28;20396;-69
2023/11/23 04:59:02;;;;;;;1.25;1.23;;;;;;;;;;5029949;28;20048;-69
2023/11/23 05:01:29;;;;;;;1.83;1.38;;;;;;;;;;5018843;28;20040;-68
2023/11/23 05:03:55;;;;;;;1.20;1.20;;;;;;;;;;5021140;28;20048;-69
2023/11/23 05:06:21;;;;;;;1.23;1.20;;;;;;;;;;5016861;28;20033;-68
2023/11/23 05:08:47;;;;;;;1.25;1.25;;;;;;;;;;5020633;28;20033;-69
2023/11/23 05:11:14;;;;;;;3.90;1.30;;;;;;;;;;5015344;28;20029;-69
2023/11/23 05:13:40;;;;;;;1.92;1.35;;;;;;;;;;5029219;28;20108;-69
2023/11/23 05:16:07;;;;;;;1.20;1.17;;;;;;;;;;5023158;28;20017;-69
2023/11/23 05:18:33;;;;;;;3.58;1.58;;;;;;;;;;5011909;28;20494;-69
2023/11/23 05:20:59;;;;;;;1.13;1.13;;;;;;;;;;5013863;28;20206;-69
2023/11/23 05:23:25;;;;;;;1.20;1.20;;;;;;;;;;5018707;28;20042;-69
2023/11/23 05:25:53;;;;;;;1.65;1.35;;;;;;;;;;5021232;28;20046;-69
2023/11/23 05:28:19;;;;;;;1.13;1.13;;;;;;;;;;5016059;28;20049;-69
2023/11/23 05:30:45;;;;;;;1.30;1.30;;;;;;;;;;5023783;28;20044;-69
2023/11/23 05:33:12;;;;;;;1.40;1.30;;;;;;;;;;5022317;28;20052;-68
2023/11/23 05:35:38;;;;;;;2.75;1.50;;;;;;;;;;5022898;28;20476;-68
2023/11/23 05:38:04;;;;;;;2.45;1.50;;;;;;;;;;5017905;28;20395;-69
2023/11/23 05:40:30;;;;;;;1.33;1.25;;;;;;;;;;5025548;28;20030;-69
2023/11/23 05:42:57;;;;;;;1.75;1.27;;;;;;;;;;5017040;28;20044;-69
2023/11/23 05:45:23;;;;;;;2.03;1.30;;;;;;;;;;5020308;28;20546;-69
2023/11/23 05:47:51;;;;;;;1.50;1.40;;;;;;;;;;5004682;28;20029;-73
2023/11/23 05:50:17;;;;;;;2.97;1.70;;;;;;;;;;5024589;28;20025;-71
2023/11/23 05:52:44;;;;;;;1.20;1.20;;;;;;;;;;5013676;28;20499;-69
2023/11/23 05:55:10;;;;;;;1.50;1.40;;;;;;;;;;5019541;28;20121;-69
2023/11/23 05:57:36;;;;;;;3.20;1.40;;;;;;;;;;5003921;28;20034;-70
2023/11/23 06:00:06;;;;;;;1.23;1.20;;;;;;;;;;5014818;28;20428;-67
2023/11/23 06:02:32;;;;;;;2.17;1.58;;;;;;;;;;5019655;28;20682;-69
2023/11/23 06:04:58;;;;;;;1.40;1.30;;;;;;;;;;5017406;28;20977;-68
2023/11/23 06:07:25;;;;;;;6.13;1.60;;;;;;;;;;5015704;28;20387;-69
2023/11/23 06:09:51;;;;;;;2.05;1.48;;;;;;;;;;5017550;28;20164;-69
2023/11/23 06:12:17;;;;;;;1.58;1.48;;;;;;;;;;5014359;28;21740;-69
2023/11/23 06:14:43;;;;;;;1.33;1.23;;;;;;;;;;5016142;28;20451;-69
2023/11/23 06:17:10;;;;;;;2.38;1.50;;;;;;;;;;5022965;28;20065;-70
2023/11/23 06:19:39;;;;;;;1.17;1.17;;;;;;;;;;5018876;28;20038;-70
2023/11/23 06:22:06;;;;;;;1.63;1.52;;;;;;;;;;5020182;28;20036;-70
2023/11/23 06:24:32;;;;;;;2.92;1.33;;;;;;;;;;5020454;28;20041;-70
2023/11/23 06:26:58;;;;;;;1.40;1.30;;;;;;;;;;5020090;28;20030;-69
2023/11/23 06:29:27;;;;;;;2.90;1.40;;;;;;;;;;5014203;28;20043;-68
2023/11/23 06:31:56;;;;;;;4.25;1.88;;;;;;;;;;5021905;28;20040;-70
2023/11/23 06:34:22;;;;;;;3.03;1.45;;;;;;;;;;5016844;28;20029;-70
2023/11/23 06:36:51;;;;;;;2.38;1.55;;;;;;;;;;5012391;28;20060;-69
2023/11/23 06:39:23;;;;;;;1.52;1.42;;;;;;;;;;5012343;28;20088;-69
2023/11/23 06:41:52;;;;;;;1.60;1.40;;;;;;;;;;5019290;28;20013;-69
2023/11/23 06:44:20;;;;;;;1.50;1.40;;;;;;;;;;5008691;28;20056;-69
2023/11/23 06:46:46;;;;;;;4.53;1.52;;;;;;;;;;5018616;28;20104;-70
2023/11/23 06:49:12;;;;;;;4.53;1.80;;;;;;;;;;5018188;28;20361;-69
2023/11/23 06:51:39;;;;;;;2.45;1.40;;;;;;;;;;5017708;28;20057;-68
2023/11/23 06:54:06;;;;;;;1.30;1.30;;;;;;;;;;5020886;28;20411;-68
2023/11/23 06:56:32;;;;;;;2.60;1.75;;;;;;;;;;5022250;28;20029;-67
2023/11/23 06:58:59;;;;;;;3.58;1.65;;;;;;;;;;5020145;28;20095;-69
2023/11/23 07:01:25;;;;;;;8.18;1.95;;;;;;;;;;5025556;28;20018;-69
2023/11/23 07:03:52;;;;;;;5.05;1.80;;;;;;;;;;5019797;28;20036;-69
2023/11/23 07:06:20;;;;;;;3.50;1.83;;;;;;;;;;5026104;28;20033;-68
2023/11/23 07:08:47;;;;;;;4.25;1.92;;;;;;;;;;5017394;28;20336;-69
2023/11/23 07:11:17;;;;;;;3.67;2.03;;;;;;;;;;5015550;28;20063;-70
2023/11/23 07:13:44;;;;;;;1.90;1.70;;;;;;;;;;5023816;28;20022;-69
2023/11/23 07:16:12;;;;;;;3.50;1.70;;;;;;;;;;5019519;28;20363;-70
2023/11/23 07:18:39;;;;;;;6.88;1.67;;;;;;;;;;5012783;28;20315;-69
2023/11/23 07:21:05;;;;;;;3.28;1.92;;;;;;;;;;5017603;28;20219;-69
2023/11/23 07:23:31;;;;;;;1.92;1.75;;;;;;;;;;5012636;28;20022;-69
2023/11/23 07:25:58;;;;;;;8.70;2.00;;;;;;;;;;5017493;28;20060;-69
2023/11/23 07:28:27;;;;;;;4.93;2.05;;;;;;;;;;5018307;28;20030;-67
2023/11/23 07:30:56;;;;;;;4.10;1.80;;;;;;;;;;5015822;28;20061;-68
2023/11/23 07:33:24;;;;;;;3.45;1.70;;;;;;;;;;5015002;28;20136;-69
2023/11/23 07:35:51;;;;;;;7.57;2.20;;;;;;;;;;5014865;28;20025;-69
2023/11/23 07:38:17;;;;;;;5.63;2.30;;;;;;;;;;5019558;28;20033;-69
2023/11/23 07:40:43;;;;;;;6.38;2.03;;;;;;;;;;5018613;28;20637;-69
2023/11/23 07:43:10;;;;;;;7.25;4.35;;;;;;;;;;5017073;28;20387;-69
2023/11/23 07:45:37;;;;;;;6.25;2.40;;;;;;;;;;5026230;28;20033;-69
2023/11/23 07:48:08;;;;;;;6.28;1.98;;;;;;;;;;5014064;28;20061;-69
2023/11/23 07:50:37;;;;;;;5.15;1.73;;;;;;;;;;5025163;28;20399;-70
2023/11/23 07:53:04;;;;;;;4.50;2.13;;;;;;;;;;5018363;28;20037;-69
2023/11/23 07:55:30;;;;;;;3.75;2.08;;;;;;;;;;5024786;28;20454;-71
2023/11/23 07:57:56;;;;;;;6.55;2.20;;;;;;;;;;5026122;28;20156;-70
2023/11/23 08:00:22;;;;;;;9.52;2.50;;;;;;;;;;5024007;28;20026;-70
2023/11/23 08:02:48;;;;;;;11.02;2.70;;;;;;;;;;5022377;28;20553;-68
2023/11/23 08:05:15;;;;;;;7.07;2.50;;;;;;;;;;5023232;28;20078;-69
2023/11/23 08:07:42;;;;;;;11.23;2.72;;;;;;;;;;5018628;28;20037;-70
2023/11/23 08:10:09;;;;;;;7.88;2.50;;;;;;;;;;5026713;28;20511;-69
2023/11/23 08:12:35;;;;;;;8.35;2.80;;;;;;;;;;5020198;28;20033;-68
2023/11/23 08:15:02;;;;;;;9.13;3.15;;;;;;;;;;5022456;28;20100;-68
2023/11/23 08:17:28;;;;;;;6.50;3.33;;;;;;;;;;5017173;28;20435;-68
2023/11/23 08:19:54;;;;;;;12.32;3.00;;;;;;;;;;5013928;28;20033;-69
2023/11/23 08:22:21;;;;;;;7.13;3.13;;;;;;;;;;5017586;28;20412;-69
2023/11/23 08:24:47;;;;;;;4.10;2.50;;;;;;;;;;5018463;28;20136;-69
2023/11/23 08:27:14;;;;;;;7.15;3.45;;;;;;;;;;5012230;28;20112;-69
2023/11/23 08:29:40;;;;;;;7.65;2.72;;;;;;;;;;5018393;28;20029;-69
2023/11/23 08:32:09;;;;;;;3.65;2.42;;;;;;;;;;5015162;28;20483;-70
2023/11/23 08:34:37;;;;;;;5.28;2.45;;;;;;;;;;5014518;28;20539;-69
2023/11/23 08:37:03;;;;;;;9.20;2.92;;;;;;;;;;5025200;28;20030;-69
2023/11/23 08:39:29;;;;;;;8.02;2.90;;;;;;;;;;5022429;28;20032;-69
2023/11/23 08:41:55;;;;;;;6.47;3.08;;;;;;;;;;5026673;28;20479;-68
2023/11/23 08:44:21;;;;;;;5.68;3.47;;;;;;;;;;5011841;28;20400;-68
2023/11/23 08:46:48;;;;;;;7.10;2.83;;;;;;;;;;5020418;28;20499;-70
2023/11/23 08:49:15;;;;;;;7.15;2.85;;;;;;;;;;5015783;28;20038;-68
2023/11/23 08:51:41;;;;;;;8.65;3.95;;;;;;;;;;5018184;28;20017;-69
2023/11/23 08:54:08;;;;;;;5.82;2.70;;;;;;;;;;5012010;28;20040;-70
2023/11/23 08:56:35;;;;;;;8.07;3.00;;;;;;;;;;5024237;28;20021;-70
2023/11/23 08:59:02;;;;;;;5.38;3.13;;;;;;;;;;5015587;28;20064;-69
2023/11/23 09:01:28;;;;;;;5.60;2.65;;;;;;;;;;5019047;28;20080;-70
2023/11/23 09:03:54;;;;;;;9.88;3.33;;;;;;;;;;5018325;28;20557;-69
2023/11/23 09:06:21;;;;;;;6.00;2.60;;;;;;;;;;5018177;28;20100;-69
2023/11/23 09:08:48;;;;;;;5.18;3.33;;;;;;;;;;5015486;28;20029;-70
2023/11/23 09:11:15;;;;;;;6.18;2.47;;;;;;;;;;5020759;28;20392;-69
2023/11/23 09:13:41;;;;;;;4.03;2.30;;;;;;;;;;5014678;28;20052;-70
2023/11/23 09:16:08;;;;;;;4.53;1.98;;;;;;;;;;5017675;28;20034;-70
2023/11/23 09:18:35;;;;;;;4.05;2.20;;;;;;;;;;5025984;28;20044;-70
2023/11/23 09:21:02;;;;;;;4.55;2.00;;;;;;;;;;5018288;28;20026;-72
2023/11/23 09:23:28;;;;;;;5.15;2.00;;;;;;;;;;5023408;28;20029;-70
2023/11/23 09:25:54;;;;;;;4.82;1.98;;;;;;;;;;5024252;28;20053;-69
2023/11/23 09:28:22;;;;;;;5.47;2.13;;;;;;;;;;5007244;28;20030;-70
2023/11/23 09:30:48;;;;;;;7.30;2.42;;;;;;;;;;5021883;28;20068;-70
2023/11/23 09:33:14;;;;;;;4.45;2.30;;;;;;;;;;5014924;28;20037;-69
2023/11/23 09:35:42;;;;;;;5.88;2.47;;;;;;;;;;5020521;28;20509;-69
2023/11/23 09:38:08;;;;;;;6.65;2.03;;;;;;;;;;5014998;28;20112;-72
2023/11/23 09:40:35;;;;;;;6.13;2.05;;;;;;;;;;5019580;28;20080;-70
2023/11/23 09:43:01;;;;;;;3.20;1.80;;;;;;;;;;5014768;28;20029;-70
2023/11/23 09:45:29;;;;;;;5.13;2.10;;;;;;;;;;5022949;28;20076;-69
2023/11/23 09:47:56;;;;;;;6.57;2.20;;;;;;;;;;5010730;28;20021;-70
2023/11/23 09:50:22;;;;;;;4.90;2.30;;;;;;;;;;5024128;28;20032;-69
2023/11/23 09:52:49;;;;;;;3.78;1.80;;;;;;;;;;5014272;28;20033;-70
2023/11/23 09:55:18;;;;;;;6.28;2.53;;;;;;;;;;5015894;28;20065;-69
2023/11/23 09:57:45;;;;;;;5.85;2.60;;;;;;;;;;5013249;28;20022;-69
2023/11/23 10:00:14;;;;;;;6.28;1.88;;;;;;;;;;5024648;28;20542;-71
2023/11/23 10:02:42;;;;;;;9.80;2.30;;;;;;;;;;5010067;28;20032;-70
2023/11/23 10:05:09;;;;;;;4.68;2.25;;;;;;;;;;5010276;28;20021;-69
2023/11/23 10:07:35;;;;;;;7.97;2.67;;;;;;;;;;5020101;28;20041;-69
2023/11/23 10:10:05;;;;;;;3.05;2.10;;;;;;;;;;5018720;28;20041;-69
2023/11/23 10:12:31;;;;;;;2.30;2.10;;;;;;;;;;5017888;28;20336;-70
2023/11/23 10:14:58;;;;;;;6.95;2.10;;;;;;;;;;5017528;28;20044;-69
2023/11/23 10:17:26;;;;;;;3.72;2.08;;;;;;;;;;5028935;28;20467;-70
2023/11/23 10:19:52;;;;;;;5.18;2.47;;;;;;;;;;5016101;28;20091;-69
2023/11/23 10:22:19;;;;;;;7.65;2.10;;;;;;;;;;5016409;28;20119;-70
2023/11/23 10:24:48;;;;;;;5.05;2.75;;;;;;;;;;5020735;28;20077;-69
2023/11/23 10:27:20;;;;;;;3.42;2.10;;;;;;;;;;5015218;28;20029;-70
2023/11/23 10:29:47;;;;;;;11.23;2.38;;;;;;;;;;5019575;28;20079;-69
2023/11/23 10:32:16;;;;;;;8.20;2.25;;;;;;;;;;5018965;28;20430;-69
2023/11/23 10:34:42;;;;;;;5.82;2.40;;;;;;;;;;5019343;28;20060;-69
2023/11/23 10:37:12;;;;;;;5.60;2.63;;;;;;;;;;5020728;28;20087;-70
2023/11/23 10:39:38;;;;;;;6.97;2.42;;;;;;;;;;5024036;28;20083;-70
2023/11/23 10:42:05;;;;;;;6.97;2.63;;;;;;;;;;5013332;28;20117;-70
2023/11/23 10:44:33;;;;;;;3.38;2.08;;;;;;;;;;5014692;28;20199;-70
2023/11/23 10:47:03;;;;;;;8.43;1.92;;;;;;;;;;5016915;28;20032;-70
2023/11/23 10:49:35;;;;;;;5.70;2.00;;;;;;;;;;5011355;28;20108;-69
2023/11/23 10:52:03;;;;;;;3.50;2.15;;;;;;;;;;5011163;28;20834;-68
2023/11/23 10:54:29;;;;;;;9.10;2.67;;;;;;;;;;5020704;28;20563;-69
2023/11/23 10:56:58;;;;;;;5.43;2.75;;;;;;;;;;5012624;28;20018;-69
2023/11/23 10:59:25;;;;;;;3.42;2.53;;;;;;;;;;5019935;28;20029;-69
2023/11/23 11:01:52;;;;;;;5.40;2.47;;;;;;;;;;5019080;28;20029;-69
2023/11/23 11:04:19;;;;;;;7.72;2.20;;;;;;;;;;5008932;28;20468;-68
2023/11/23 11:06:48;;;;;;;5.13;2.30;;;;;;;;;;5013526;28;20034;-68
2023/11/23 11:09:15;;;;;;;4.50;2.10;;;;;;;;;;5010782;28;20041;-68
2023/11/23 11:11:45;;;;;;;5.40;2.67;;;;;;;;;;5012760;28;20030;-69
2023/11/23 11:14:16;;;;;;;4.03;2.38;;;;;;;;;;5016274;28;20420;-69
2023/11/23 11:16:43;;;;;;;4.80;2.35;;;;;;;;;;5018884;28;20116;-69
2023/11/23 11:19:16;;;;;;;4.70;2.38;;;;;;;;;;5015196;28;20041;-69
2023/11/23 11:21:48;;;;;;;4.32;2.25;;;;;;;;;;5010315;28;20037;-69
2023/11/23 11:24:18;;;;;;;3.40;2.20;;;;;;;;;;5020147;28;20116;-69
2023/11/23 11:26:46;;;;;;;5.80;2.40;;;;;;;;;;5009335;28;20029;-70
2023/11/23 11:29:13;;;;;;;5.68;2.22;;;;;;;;;;5015476;28;20125;-69
2023/11/23 11:31:43;;;;;;;7.88;2.30;;;;;;;;;;5017214;28;20052;-69
2023/11/23 11:34:17;;;;;;;6.07;2.50;;;;;;;;;;5008037;28;20061;-70
2023/11/23 11:36:43;;;;;;;4.72;2.17;;;;;;;;;;5013747;28;20029;-70
2023/11/23 11:39:13;;;;;;;9.77;2.58;;;;;;;;;;5008653;28;20511;-69
2023/11/23 11:41:40;;;;;;;5.10;1.92;;;;;;;;;;5014924;28;20373;-69
2023/11/23 11:44:08;;;;;;;9.05;2.70;;;;;;;;;;5017338;28;20018;-69
2023/11/23 11:46:35;;;;;;;5.47;2.40;;;;;;;;;;5016743;28;20026;-68
2023/11/23 11:49:02;;;;;;;9.13;3.40;;;;;;;;;;5014413;28;20562;-68
2023/11/23 11:51:29;;;;;;;7.55;2.40;;;;;;;;;;5016858;28;20064;-69
2023/11/23 11:53:55;;;;;;;5.57;2.40;;;;;;;;;;5016725;28;20068;-69
2023/11/23 11:56:22;;;;;;;5.93;2.30;;;;;;;;;;5025621;28;20083;-69
2023/11/23 11:58:49;;;;;;;8.77;2.28;;;;;;;;;;5018665;28;20411;-69
2023/11/23 12:01:15;;;;;;;11.40;3.13;;;;;;;;;;5015669;28;20029;-69
2023/11/23 12:03:41;;;;;;;12.00;2.83;;;;;;;;;;5015078;28;20072;-69
2023/11/23 12:06:08;;;;;;;12.00;3.05;;;;;;;;;;5017907;28;20032;-70
2023/11/23 12:08:34;;;;;;;5.07;2.60;;;;;;;;;;5018132;28;20025;-68
2023/11/23 12:11:01;;;;;;;7.15;2.65;;;;;;;;;;5024400;28;20029;-69
2023/11/23 12:13:27;;;;;;;9.50;2.63;;;;;;;;;;5023580;28;20076;-69
2023/11/23 12:15:54;;;;;;;6.85;2.30;;;;;;;;;;5023049;28;20140;-68
2023/11/23 12:18:34;;;;;;;7.82;2.90;;;;;;;;;;5010471;28;20029;-69
2023/11/23 12:21:01;;;;;;;7.30;2.70;;;;;;;;;;5019626;28;20037;-69
2023/11/23 12:23:27;;;;;;;3.83;2.40;;;;;;;;;;5023195;28;20052;-69
2023/11/23 12:25:55;;;;;;;4.82;2.85;;;;;;;;;;5021420;28;20141;-68
2023/11/23 12:28:22;;;;;;;10.23;3.03;;;;;;;;;;5017286;28;20133;-69
2023/11/23 12:30:48;;;;;;;9.68;2.60;;;;;;;;;;5019559;28;20029;-69
2023/11/23 12:33:14;;;;;;;7.22;2.90;;;;;;;;;;5015869;28;20036;-69
2023/11/23 12:35:40;;;;;;;5.38;2.60;;;;;;;;;;5022353;28;20044;-69
2023/11/23 12:38:09;;;;;;;7.68;3.22;;;;;;;;;;5019681;28;20029;-68
2023/11/23 12:40:36;;;;;;;10.48;3.13;;;;;;;;;;5027211;28;20026;-69
2023/11/23 12:43:02;;;;;;;4.70;2.92;;;;;;;;;;5018558;28;20025;-69
2023/11/23 12:45:28;;;;;;;10.02;3.45;;;;;;;;;;5004446;28;20034;-69
2023/11/23 12:47:55;;;;;;;7.78;2.97;;;;;;;;;;5012583;28;20054;-69
2023/11/23 12:50:21;;;;;;;8.68;3.08;;;;;;;;;;5021325;28;20033;-69
2023/11/23 12:52:48;;;;;;;10.30;2.90;;;;;;;;;;5010513;28;20079;-68
2023/11/23 12:55:18;;;;;;;12.18;3.72;;;;;;;;;;5019340;28;20033;-69
2023/11/23 12:57:48;;;;;;;9.70;2.90;;;;;;;;;;5017761;28;20500;-69
2023/11/23 13:00:15;;;;;;;11.25;2.70;;;;;;;;;;5013885;28;20036;-68
2023/11/23 13:02:42;;;;;;;4.80;2.90;;;;;;;;;;5013306;28;20018;-68
2023/11/23 13:05:09;;;;;;;10.90;2.83;;;;;;;;;;5017844;28;20025;-69
2023/11/23 13:07:37;;;;;;;9.85;3.08;;;;;;;;;;5014486;28;20034;-70
2023/11/23 13:10:05;;;;;;;6.53;3.25;;;;;;;;;;5019352;28;20079;-69
2023/11/23 13:12:32;;;;;;;3.80;2.95;;;;;;;;;;5009372;28;20030;-67
2023/11/23 13:14:58;;;;;;;11.85;3.28;;;;;;;;;;5016161;28;20106;-68
2023/11/23 13:17:25;;;;;;;5.72;2.55;;;;;;;;;;5019993;28;20147;-68
2023/11/23 13:19:51;;;;;;;9.98;3.08;;;;;;;;;;5013900;28;20057;-68
2023/11/23 13:22:17;;;;;;;6.82;2.97;;;;;;;;;;5012465;28;20021;-69
2023/11/23 13:24:43;;;;;;;10.27;2.58;;;;;;;;;;5016707;28;20881;-68
2023/11/23 13:27:12;;;;;;;10.60;2.72;;;;;;;;;;5020827;28;20091;-68
2023/11/23 13:29:38;;;;;;;4.95;2.95;;;;;;;;;;5012968;28;20066;-69
2023/11/23 13:32:05;;;;;;;9.48;3.15;;;;;;;;;;5014794;28;20052;-71
2023/11/23 13:34:31;;;;;;;4.32;2.67;;;;;;;;;;5017324;28;20065;-68
2023/11/23 13:36:58;;;;;;;8.40;2.97;;;;;;;;;;5017635;28;20044;-68
2023/11/23 13:39:27;;;;;;;9.23;3.40;;;;;;;;;;5018899;28;20060;-69
2023/11/23 13:41:53;;;;;;;10.07;3.13;;;;;;;;;;5021416;28;20017;-68
2023/11/23 13:44:20;;;;;;;10.63;3.45;;;;;;;;;;5025559;28;20459;-69
2023/11/23 13:46:46;;;;;;;9.68;2.97;;;;;;;;;;5017410;28;20026;-69
2023/11/23 13:49:13;;;;;;;8.75;3.10;;;;;;;;;;5016975;28;20060;-69
2023/11/23 13:51:40;;;;;;;7.55;3.03;;;;;;;;;;5023108;28;20423;-69
2023/11/23 13:54:09;;;;;;;11.65;4.05;;;;;;;;;;5020891;28;20027;-70
2023/11/23 13:56:36;;;;;;;9.40;3.88;;;;;;;;;;5019150;28;20427;-69
2023/11/23 13:59:03;;;;;;;8.48;4.38;;;;;;;;;;5015279;28;20077;-70
2023/11/23 14:01:29;;;;;;;11.27;3.60;;;;;;;;;;5016922;28;20083;-69
2023/11/23 14:03:55;;;;;;;5.28;2.60;;;;;;;;;;5024541;28;20029;-69
2023/11/23 14:06:22;;;;;;;9.25;3.75;;;;;;;;;;5019289;28;20036;-71
2023/11/23 14:08:48;;;;;;;9.18;3.15;;;;;;;;;;5013119;28;20364;-68
2023/11/23 14:11:14;;;;;;;11.02;3.97;;;;;;;;;;5018835;28;20053;-70
2023/11/23 14:13:40;;;;;;;8.75;3.53;;;;;;;;;;5019928;28;20087;-68
2023/11/23 14:16:07;;;;;;;10.02;3.72;;;;;;;;;;5022528;28;20037;-70
2023/11/23 14:18:38;;;;;;;8.75;3.08;;;;;;;;;;5021526;28;20017;-68
2023/11/23 14:21:06;;;;;;;9.70;3.72;;;;;;;;;;5016631;28;20391;-70
2023/11/23 14:23:34;;;;;;;15.63;4.32;;;;;;;;;;5013975;28;20029;-68
2023/11/23 14:26:00;;;;;;;10.73;3.65;;;;;;;;;;5014610;28;20065;-68
2023/11/23 14:28:26;;;;;;;11.07;3.65;;;;;;;;;;5020848;28;20076;-68
2023/11/23 14:30:52;;;;;;;8.98;3.35;;;;;;;;;;5009657;28;20465;-69
2023/11/23 14:33:22;;;;;;;9.77;4.05;;;;;;;;;;5020712;28;20022;-69
2023/11/23 14:35:57;;;;;;;8.43;3.25;;;;;;;;;;5015489;28;20423;-69
2023/11/23 14:38:25;;;;;;;7.57;3.17;;;;;;;;;;5012160;28;20038;-69
2023/11/23 14:40:53;;;;;;;9.25;3.10;;;;;;;;;;5020092;28;20018;-69